createdAt,value
2023-02-09T00:01:30.247Z,99.90
2023-02-09T00:03:59.012Z,99.90
2023-02-09T00:06:29.923Z,99.90
2023-02-09T00:08:58.663Z,99.90
2023-02-09T00:11:49.940Z,99.90
2023-02-09T00:14:21.727Z,99.90
2023-02-09T00:16:50.702Z,99.90
2023-02-09T00:19:20.320Z,99.90
2023-02-09T00:21:48.672Z,99.90
2023-02-09T00:24:16.356Z,99.90
2023-02-09T00:26:43.738Z,99.90
2023-02-09T00:29:11.547Z,99.90
2023-02-09T00:31:39.210Z,99.90
2023-02-09T00:34:07.287Z,99.90
2023-02-09T00:36:42.517Z,99.90
2023-02-09T00:39:10.715Z,99.90
2023-02-09T00:41:56.466Z,99.90
2023-02-09T00:44:23.682Z,99.90
2023-02-09T00:46:52.281Z,99.90
2023-02-09T00:49:20.307Z,99.90
2023-02-09T00:51:48.549Z,99.90
2023-02-09T00:54:17.093Z,99.90
2023-02-09T00:56:45.100Z,99.90
2023-02-09T00:59:12.694Z,99.90
2023-02-09T01:01:40.193Z,99.90
2023-02-09T01:04:07.628Z,99.90
2023-02-09T01:06:35.103Z,99.90
2023-02-09T01:09:03.232Z,99.90
2023-02-09T01:11:30.622Z,99.90
2023-02-09T01:13:59.783Z,99.90
2023-02-09T01:16:31.832Z,99.90
2023-02-09T01:19:01.955Z,99.90
2023-02-09T01:21:29.884Z,99.90
2023-02-09T01:23:57.194Z,99.90
2023-02-09T01:26:24.575Z,99.90
2023-02-09T01:28:53.786Z,99.90
2023-02-09T01:31:36.127Z,99.90
2023-02-09T01:34:04.554Z,99.90
2023-02-09T01:36:33.209Z,99.90
2023-02-09T01:39:02.948Z,99.90
2023-02-09T01:41:30.601Z,99.90
2023-02-09T01:44:02.692Z,99.90
2023-02-09T01:46:36.128Z,99.90
2023-02-09T01:49:15.110Z,99.90
2023-02-09T01:51:50.601Z,99.90
2023-02-09T01:54:34.193Z,99.90
2023-02-09T01:57:08.902Z,99.90
2023-02-09T01:59:39.511Z,99.90
2023-02-09T02:02:08.151Z,99.90
2023-02-09T02:04:37.347Z,99.90
2023-02-09T02:07:17.038Z,99.90
2023-02-09T02:09:45.990Z,99.90
2023-02-09T02:12:13.337Z,99.90
2023-02-09T02:14:40.954Z,99.90
2023-02-09T02:17:26.926Z,99.90
2023-02-09T02:19:53.998Z,99.90
2023-02-09T02:22:54.690Z,99.90
2023-02-09T02:25:43.725Z,99.90
2023-02-09T02:28:48.424Z,99.90
2023-02-09T02:31:32.645Z,99.90
2023-02-09T02:34:33.897Z,99.90
2023-02-09T02:37:57.315Z,99.90
2023-02-09T02:40:57.982Z,99.90
2023-02-09T02:43:41.147Z,99.90
2023-02-09T02:46:35.895Z,99.90
2023-02-09T02:49:20.289Z,99.90
2023-02-09T02:51:52.407Z,99.90
2023-02-09T02:54:27.974Z,99.90
2023-02-09T02:57:05.553Z,99.90
2023-02-09T02:59:39.093Z,99.90
2023-02-09T03:02:12.791Z,99.90
2023-02-09T03:04:41.039Z,99.90
2023-02-09T03:07:09.500Z,99.90
2023-02-09T03:09:36.982Z,99.90
2023-02-09T03:12:31.267Z,99.90
2023-02-09T03:15:27.793Z,99.90
2023-02-09T03:18:23.632Z,99.90
2023-02-09T03:21:46.143Z,99.90
2023-02-09T03:24:38.937Z,99.90
2023-02-09T03:27:57.303Z,99.90
2023-02-09T03:30:25.461Z,99.90
2023-02-09T03:32:56.463Z,99.90
2023-02-09T03:35:31.911Z,99.90
2023-02-09T03:37:59.747Z,99.90
2023-02-09T03:40:27.156Z,99.90
2023-02-09T03:42:54.234Z,99.90
2023-02-09T03:45:21.268Z,99.90
2023-02-09T03:47:48.493Z,99.90
2023-02-09T03:50:16.126Z,99.90
2023-02-09T03:52:43.644Z,99.90
2023-02-09T03:55:10.766Z,99.90
2023-02-09T03:57:39.266Z,99.90
2023-02-09T04:00:08.028Z,99.90
2023-02-09T04:02:35.243Z,99.90
2023-02-09T04:05:03.279Z,99.90
2023-02-09T04:07:31.785Z,99.90
2023-02-09T04:09:59.008Z,99.90
2023-02-09T04:12:26.176Z,99.90
2023-02-09T04:14:53.290Z,99.90
2023-02-09T04:17:20.365Z,99.90
2023-02-09T04:19:47.522Z,99.90
2023-02-09T04:22:14.613Z,99.90
2023-02-09T04:24:41.762Z,99.90
2023-02-09T04:27:08.862Z,99.90
2023-02-09T04:29:35.951Z,99.90
2023-02-09T04:32:03.338Z,99.90
2023-02-09T04:34:30.489Z,99.90
2023-02-09T04:36:57.540Z,99.90
2023-02-09T04:39:24.672Z,99.90
2023-02-09T04:41:51.885Z,99.90
2023-02-09T04:44:19.115Z,99.90
2023-02-09T04:46:46.211Z,99.90
2023-02-09T04:49:13.379Z,99.90
2023-02-09T04:51:40.462Z,99.90
2023-02-09T04:54:07.662Z,99.90
2023-02-09T04:56:34.895Z,99.90
2023-02-09T04:59:20.333Z,99.90
2023-02-09T05:01:47.580Z,99.90
2023-02-09T05:04:14.613Z,99.90
2023-02-09T05:06:41.645Z,99.90
2023-02-09T05:09:08.841Z,99.90
2023-02-09T05:11:35.916Z,99.90
2023-02-09T05:14:03.089Z,99.90
2023-02-09T05:16:30.288Z,99.90
2023-02-09T05:18:57.393Z,99.90
2023-02-09T05:21:24.546Z,99.90
2023-02-09T05:23:51.668Z,99.90
2023-02-09T05:26:18.750Z,99.90
2023-02-09T05:28:45.877Z,99.90
2023-02-09T05:31:12.995Z,99.90
2023-02-09T05:33:40.138Z,99.90
2023-02-09T05:36:09.758Z,99.90
2023-02-09T05:38:37.147Z,99.90
2023-02-09T05:41:07.802Z,99.90
2023-02-09T05:43:35.381Z,99.90
2023-02-09T05:46:03.117Z,99.90
2023-02-09T05:48:30.543Z,99.90
2023-02-09T05:50:57.639Z,99.90
2023-02-09T05:53:24.749Z,99.90
2023-02-09T05:55:51.856Z,99.90
2023-02-09T05:58:18.929Z,99.90
2023-02-09T06:00:46.390Z,99.90
2023-02-09T06:03:13.662Z,99.90
2023-02-09T06:05:40.746Z,99.90
2023-02-09T06:08:07.847Z,99.90
2023-02-09T06:10:38.363Z,99.90
2023-02-09T06:13:06.053Z,99.90
2023-02-09T06:15:33.688Z,99.90
2023-02-09T06:18:01.303Z,99.90
2023-02-09T06:20:28.850Z,99.90
2023-02-09T06:22:55.969Z,99.90
2023-02-09T06:25:23.223Z,99.90
2023-02-09T06:27:50.363Z,99.90
2023-02-09T06:30:17.531Z,99.90
2023-02-09T06:32:44.803Z,99.90
2023-02-09T06:35:11.924Z,99.90
2023-02-09T06:37:39.127Z,99.90
2023-02-09T06:40:08.125Z,99.90
2023-02-09T06:42:44.376Z,99.90
2023-02-09T06:45:15.054Z,99.90
2023-02-09T06:47:44.434Z,99.90
2023-02-09T06:50:14.408Z,99.90
2023-02-09T06:52:41.702Z,99.90
2023-02-09T06:55:09.306Z,99.90
2023-02-09T06:57:36.702Z,99.90
2023-02-09T07:00:08.585Z,99.90
2023-02-09T07:02:36.108Z,99.90
2023-02-09T07:05:03.241Z,99.90
2023-02-09T07:07:30.510Z,99.90
2023-02-09T07:09:57.596Z,99.90
2023-02-09T07:12:24.822Z,99.90
2023-02-09T07:14:52.172Z,99.90
2023-02-09T07:17:19.398Z,99.90
2023-02-09T07:19:47.152Z,99.90
2023-02-09T07:22:14.907Z,99.90
2023-02-09T07:24:42.186Z,99.90
2023-02-09T07:27:09.248Z,99.90
2023-02-09T07:29:36.336Z,99.90
2023-02-09T07:32:05.821Z,99.90
2023-02-09T07:34:33.696Z,99.90
2023-02-09T07:37:01.501Z,99.90
2023-02-09T07:39:28.955Z,99.90
2023-02-09T07:41:56.575Z,99.90
2023-02-09T07:44:25.130Z,99.90
2023-02-09T07:46:52.918Z,99.90
2023-02-09T07:49:20.167Z,99.90
2023-02-09T07:51:47.256Z,99.90
2023-02-09T07:54:15.276Z,99.90
2023-02-09T07:56:42.670Z,99.90
2023-02-09T07:59:11.721Z,99.90
2023-02-09T08:01:38.989Z,99.90
2023-02-09T08:04:06.193Z,99.90
2023-02-09T08:06:46.901Z,99.90
2023-02-09T08:09:19.294Z,99.90
2023-02-09T08:11:54.256Z,99.90
2023-02-09T08:14:25.819Z,99.90
2023-02-09T08:17:16.955Z,99.90
2023-02-09T08:19:56.108Z,99.90
2023-02-09T08:22:25.435Z,99.90
2023-02-09T08:24:53.082Z,99.90
2023-02-09T08:27:20.370Z,99.90
2023-02-09T08:29:48.923Z,99.90
2023-02-09T08:32:16.339Z,99.90
2023-02-09T08:34:43.595Z,99.90
2023-02-09T08:37:12.088Z,99.90
2023-02-09T08:39:39.184Z,99.90
2023-02-09T08:42:06.321Z,99.90
2023-02-09T08:44:34.167Z,99.90
2023-02-09T08:47:01.465Z,99.90
2023-02-09T08:49:28.695Z,99.90
2023-02-09T08:51:55.802Z,99.90
2023-02-09T08:54:23.373Z,99.90
2023-02-09T08:56:50.929Z,99.90
2023-02-09T08:59:20.057Z,99.90
2023-02-09T09:01:47.364Z,99.90
2023-02-09T09:04:16.091Z,99.90
2023-02-09T09:06:43.323Z,99.90
2023-02-09T09:09:10.460Z,99.90
2023-02-09T09:11:37.580Z,99.90
2023-02-09T09:14:05.101Z,99.90
2023-02-09T09:16:32.400Z,99.90
2023-02-09T09:19:00.145Z,99.90
2023-02-09T09:21:27.371Z,99.90
2023-02-09T09:23:56.755Z,99.90
2023-02-09T09:26:23.813Z,99.90
2023-02-09T09:28:52.222Z,99.90
2023-02-09T09:31:20.049Z,99.90
2023-02-09T09:33:47.840Z,99.90
2023-02-09T09:36:15.790Z,99.90
2023-02-09T09:38:44.553Z,99.90
2023-02-09T09:41:31.747Z,99.90
2023-02-09T09:44:00.896Z,99.90
2023-02-09T09:46:39.957Z,99.90
2023-02-09T09:49:07.844Z,99.90
2023-02-09T09:51:37.106Z,99.90
2023-02-09T09:54:10.761Z,99.90
2023-02-09T09:56:41.565Z,99.90
2023-02-09T09:59:22.584Z,99.90
2023-02-09T10:01:52.607Z,99.90
2023-02-09T10:04:23.695Z,99.90
2023-02-09T10:07:07.405Z,99.90
2023-02-09T10:09:59.207Z,99.90
2023-02-09T10:12:38.118Z,99.90
2023-02-09T10:15:35.308Z,99.90
2023-02-09T10:18:03.223Z,99.90
2023-02-09T10:20:53.520Z,99.90
2023-02-09T10:23:22.921Z,99.90
2023-02-09T10:26:23.605Z,99.90
2023-02-09T10:28:57.737Z,99.90
2023-02-09T10:31:40.922Z,99.90
2023-02-09T10:34:17.113Z,99.90
2023-02-09T10:37:20.770Z,99.90
2023-02-09T10:40:08.309Z,99.90
2023-02-09T10:42:39.282Z,99.90
2023-02-09T10:45:40.713Z,99.90
2023-02-09T10:48:13.734Z,99.90
2023-02-09T10:51:03.990Z,99.90
2023-02-09T10:53:35.410Z,99.90
2023-02-09T10:56:15.312Z,99.90
2023-02-09T10:58:50.423Z,99.90
2023-02-09T11:01:29.219Z,99.90
2023-02-09T11:04:00.540Z,99.90
2023-02-09T11:06:29.266Z,99.90
2023-02-09T11:09:07.975Z,99.90
2023-02-09T11:11:40.847Z,99.90
2023-02-09T11:14:19.862Z,99.90
2023-02-09T11:16:53.121Z,99.90
2023-02-09T11:19:22.538Z,99.90
2023-02-09T11:22:08.613Z,99.90
2023-02-09T11:25:11.326Z,99.90
2023-02-09T11:28:11.476Z,99.90
2023-02-09T11:31:00.037Z,99.90
2023-02-09T11:34:13.599Z,99.90
2023-02-09T11:36:54.661Z,99.90
2023-02-09T11:39:27.796Z,99.90
2023-02-09T11:42:31.325Z,99.90
2023-02-09T11:45:08.011Z,99.90
2023-02-09T11:48:14.213Z,99.90
2023-02-09T11:51:10.315Z,99.90
2023-02-09T11:53:47.840Z,99.90
2023-02-09T11:56:28.935Z,99.90
2023-02-09T11:59:19.076Z,99.90
2023-02-09T12:02:07.830Z,99.90
2023-02-09T12:05:00.590Z,97.50
2023-02-09T12:07:32.834Z,97.60
2023-02-09T12:10:45.361Z,98.60
2023-02-09T12:13:47.180Z,96.70
2023-02-09T12:16:24.090Z,94.90
2023-02-09T12:18:55.577Z,93.00
2023-02-09T12:21:38.424Z,95.40
2023-02-09T12:24:34.918Z,94.30
2023-02-09T12:27:02.065Z,96.50
2023-02-09T12:29:40.485Z,97.50
2023-02-09T12:32:08.132Z,97.00
2023-02-09T12:34:49.708Z,94.90
2023-02-09T12:37:30.352Z,96.70
2023-02-09T12:40:18.579Z,96.00
2023-02-09T12:42:55.777Z,95.70
2023-02-09T12:45:41.499Z,95.80
2023-02-09T12:48:08.548Z,96.80
2023-02-09T12:50:48.589Z,98.40
2023-02-09T12:53:44.592Z,97.10
2023-02-09T12:56:14.464Z,95.60
2023-02-09T12:58:44.279Z,94.90
2023-02-09T13:01:14.111Z,92.90
2023-02-09T13:04:01.922Z,92.20
2023-02-09T13:06:46.170Z,91.30
2023-02-09T13:09:26.512Z,89.30
2023-02-09T13:12:14.629Z,82.20
2023-02-09T13:14:50.497Z,83.40
2023-02-09T13:17:37.921Z,78.70
2023-02-09T13:20:52.522Z,79.30
2023-02-09T13:23:41.140Z,78.30
2023-02-09T13:26:28.751Z,81.80
2023-02-09T13:29:20.261Z,79.20
2023-02-09T13:32:17.289Z,75.50
2023-02-09T13:35:23.177Z,71.40
2023-02-09T13:37:56.042Z,71.70
2023-02-09T13:40:33.956Z,74.70
2023-02-09T13:43:25.401Z,79.10
2023-02-09T13:45:55.391Z,79.10
2023-02-09T13:48:36.464Z,78.10
2023-02-09T13:51:23.830Z,77.10
2023-02-09T13:54:02.172Z,77.30
2023-02-09T13:56:33.268Z,78.70
2023-02-09T13:59:01.498Z,76.10
2023-02-09T14:01:37.270Z,76.40
2023-02-09T14:04:19.086Z,74.20
2023-02-09T14:07:05.564Z,73.40
2023-02-09T14:09:46.517Z,73.30
2023-02-09T14:12:52.123Z,76.70
2023-02-09T14:16:07.396Z,77.50
2023-02-09T14:18:54.584Z,77.70
2023-02-09T14:21:40.880Z,77.30
2023-02-09T14:24:26.873Z,78.00
2023-02-09T14:26:59.554Z,80.20
2023-02-09T14:29:30.196Z,81.10
2023-02-09T14:32:05.369Z,81.30
2023-02-09T14:34:37.770Z,81.70
2023-02-09T14:37:04.882Z,82.80
2023-02-09T14:39:32.418Z,80.40
2023-02-09T14:42:08.679Z,79.00
2023-02-09T14:44:55.880Z,83.60
2023-02-09T14:47:42.744Z,81.70
2023-02-09T14:50:22.067Z,82.70
2023-02-09T14:52:54.803Z,84.50
2023-02-09T14:55:28.762Z,82.00
2023-02-09T14:57:55.849Z,80.40
2023-02-09T15:00:28.228Z,81.90
2023-02-09T15:02:56.298Z,83.60
2023-02-09T15:05:26.104Z,85.20
2023-02-09T15:08:03.596Z,87.00
2023-02-09T15:10:37.948Z,88.10
2023-02-09T15:13:05.652Z,89.80
2023-02-09T15:15:37.591Z,91.70
2023-02-09T15:18:04.886Z,94.10
2023-02-09T15:20:32.614Z,94.70
2023-02-09T15:23:02.464Z,95.20
2023-02-09T15:25:30.110Z,96.60
2023-02-09T15:28:00.318Z,99.90
2023-02-09T15:30:35.123Z,99.90
2023-02-09T15:33:02.320Z,99.90
2023-02-09T15:35:30.062Z,99.90
2023-02-09T15:38:02.679Z,99.90
2023-02-09T15:41:04.820Z,99.90
2023-02-09T15:43:51.721Z,99.90
2023-02-09T15:46:37.296Z,99.90
2023-02-09T15:49:05.703Z,99.90
2023-02-09T15:51:37.424Z,99.90
2023-02-09T15:54:16.960Z,99.90
2023-02-09T15:56:44.448Z,99.90
2023-02-09T15:59:23.430Z,99.90
2023-02-09T16:01:51.285Z,99.90
2023-02-09T16:04:18.760Z,99.90
2023-02-09T16:06:54.620Z,99.90
2023-02-09T16:09:26.867Z,99.90
2023-02-09T16:11:54.119Z,99.90
2023-02-09T16:14:25.201Z,99.90
2023-02-09T16:16:52.827Z,99.90
2023-02-09T16:19:21.454Z,99.90
2023-02-09T16:21:56.356Z,99.90
2023-02-09T16:24:32.265Z,99.90
2023-02-09T16:27:11.281Z,99.90
2023-02-09T16:29:38.317Z,99.90
2023-02-09T16:32:15.301Z,99.90
2023-02-09T16:34:42.844Z,99.90
2023-02-09T16:37:18.770Z,99.90
2023-02-09T16:39:45.901Z,99.90
2023-02-09T16:42:15.315Z,99.90
2023-02-09T16:44:43.228Z,99.90
2023-02-09T16:47:25.313Z,99.90
2023-02-09T16:50:04.777Z,99.90
2023-02-09T16:52:32.037Z,99.90
2023-02-09T16:55:01.756Z,99.90
2023-02-09T16:57:29.502Z,99.90
2023-02-09T16:59:56.702Z,99.90
2023-02-09T17:02:32.902Z,99.90
2023-02-09T17:05:05.604Z,99.90
2023-02-09T17:07:45.607Z,99.90
2023-02-09T17:10:24.735Z,99.90
2023-02-09T17:12:53.622Z,99.90
2023-02-09T17:15:30.175Z,99.90
2023-02-09T17:18:03.230Z,99.90
2023-02-09T17:20:40.588Z,99.90
2023-02-09T17:23:09.659Z,99.90
2023-02-09T17:25:36.747Z,99.90
2023-02-09T17:28:04.494Z,99.90
2023-02-09T17:30:33.827Z,99.90
2023-02-09T17:33:05.634Z,99.90
2023-02-09T17:36:03.755Z,99.90
2023-02-09T17:38:35.272Z,99.90
2023-02-09T17:41:19.479Z,99.90
2023-02-09T17:43:47.641Z,99.90
2023-02-09T17:46:18.957Z,99.90
2023-02-09T17:48:47.861Z,99.90
2023-02-09T17:51:27.316Z,99.90
2023-02-09T17:53:54.426Z,99.90
2023-02-09T17:56:21.541Z,99.90
2023-02-09T17:58:48.766Z,99.90
2023-02-09T18:01:29.438Z,99.90
2023-02-09T18:04:00.667Z,99.90
2023-02-09T18:06:48.271Z,99.90
2023-02-09T18:09:15.422Z,99.90
2023-02-09T18:11:59.727Z,99.90
2023-02-09T18:14:28.319Z,99.90
2023-02-09T18:16:55.629Z,99.90
2023-02-09T18:19:24.646Z,99.90
2023-02-09T18:21:58.519Z,99.90
2023-02-09T18:24:29.832Z,99.90
2023-02-09T18:26:57.288Z,99.90
2023-02-09T18:29:29.564Z,99.90
2023-02-09T18:32:02.183Z,99.90
2023-02-09T18:34:30.049Z,99.90
2023-02-09T18:36:57.269Z,99.90
2023-02-09T18:39:27.911Z,99.90
2023-02-09T18:41:56.382Z,99.90
2023-02-09T18:44:31.295Z,99.90
2023-02-09T18:47:02.905Z,99.90
2023-02-09T18:49:30.115Z,99.90
2023-02-09T18:51:58.848Z,99.90
2023-02-09T18:54:29.114Z,99.90
2023-02-09T18:56:56.385Z,99.90
2023-02-09T18:59:27.891Z,99.90
2023-02-09T19:01:55.089Z,99.90
2023-02-09T19:04:22.286Z,99.90
2023-02-09T19:06:49.345Z,99.90
2023-02-09T19:09:16.417Z,99.90
2023-02-09T19:11:43.561Z,99.90
2023-02-09T19:14:29.516Z,99.90
2023-02-09T19:16:56.619Z,99.90
2023-02-09T19:19:23.775Z,99.90
2023-02-09T19:21:52.300Z,99.90
2023-02-09T19:24:19.539Z,99.90
2023-02-09T19:26:46.625Z,99.90
2023-02-09T19:29:14.585Z,99.90
2023-02-09T19:31:41.772Z,99.90
2023-02-09T19:34:09.009Z,99.90
2023-02-09T19:36:36.208Z,99.90
2023-02-09T19:39:03.500Z,99.90
2023-02-09T19:41:30.600Z,99.90
2023-02-09T19:43:58.627Z,99.90
2023-02-09T19:46:26.032Z,99.90
2023-02-09T19:48:53.942Z,99.90
2023-02-09T19:51:21.884Z,99.90
2023-02-09T19:53:49.287Z,99.90
2023-02-09T19:56:20.771Z,99.90
2023-02-09T19:58:48.057Z,99.90
2023-02-09T20:01:15.490Z,99.90
2023-02-09T20:03:42.871Z,99.90
2023-02-09T20:06:14.386Z,99.90
2023-02-09T20:08:42.175Z,99.90
2023-02-09T20:11:13.359Z,99.90
2023-02-09T20:13:40.575Z,99.90
2023-02-09T20:16:10.298Z,99.90
2023-02-09T20:18:37.809Z,99.90
2023-02-09T20:21:09.662Z,99.90
2023-02-09T20:23:37.637Z,99.90
2023-02-09T20:26:23.696Z,99.90
2023-02-09T20:28:51.006Z,99.90
2023-02-09T20:31:24.815Z,99.90
2023-02-09T20:33:52.323Z,99.90
2023-02-09T20:36:20.534Z,99.90
2023-02-09T20:38:47.992Z,99.90
2023-02-09T20:41:18.182Z,99.90
2023-02-09T20:44:04.202Z,99.90
2023-02-09T20:46:51.988Z,99.90
2023-02-09T20:49:19.691Z,99.90
2023-02-09T20:51:48.789Z,99.90
2023-02-09T20:54:16.122Z,99.90
2023-02-09T20:56:43.651Z,99.90
2023-02-09T20:59:13.022Z,99.90
2023-02-09T21:01:40.651Z,99.90
2023-02-09T21:04:09.115Z,99.90
2023-02-09T21:06:37.957Z,99.90
2023-02-09T21:09:10.879Z,99.90
2023-02-09T21:11:38.030Z,99.90
2023-02-09T21:14:05.429Z,99.90
2023-02-09T21:16:33.241Z,99.90
2023-02-09T21:19:00.522Z,99.90
2023-02-09T21:21:27.859Z,99.90
2023-02-09T21:23:55.482Z,99.90
2023-02-09T21:26:24.519Z,99.90
2023-02-09T21:28:57.124Z,99.90
2023-02-09T21:31:27.406Z,99.90
2023-02-09T21:33:55.929Z,99.90
2023-02-09T21:36:23.509Z,99.90
2023-02-09T21:38:50.614Z,99.90
2023-02-09T21:41:40.341Z,99.90
2023-02-09T21:44:10.132Z,99.90
2023-02-09T21:46:37.234Z,99.90
2023-02-09T21:49:05.136Z,99.90
2023-02-09T21:51:32.507Z,99.90
2023-02-09T21:53:59.616Z,99.90
2023-02-09T21:56:26.787Z,99.90
2023-02-09T21:58:53.997Z,99.90
2023-02-09T22:01:21.096Z,99.90
2023-02-09T22:03:50.187Z,99.90
2023-02-09T22:06:17.590Z,99.90
2023-02-09T22:08:44.638Z,99.90
2023-02-09T22:11:11.754Z,99.90
2023-02-09T22:13:38.881Z,99.90
2023-02-09T22:16:08.854Z,99.90
2023-02-09T22:18:37.405Z,99.90
2023-02-09T22:21:08.363Z,99.90
2023-02-09T22:23:35.823Z,99.90
2023-02-09T22:26:06.081Z,99.90
2023-02-09T22:28:36.440Z,99.90
2023-02-09T22:31:14.603Z,99.90
2023-02-09T22:33:42.013Z,99.90
2023-02-09T22:36:17.025Z,99.90
2023-02-09T22:38:47.574Z,99.90
2023-02-09T22:41:23.673Z,99.90
2023-02-09T22:44:03.343Z,99.90
2023-02-09T22:46:40.760Z,99.90
2023-02-09T22:49:19.943Z,99.90
2023-02-09T22:51:49.092Z,99.90
2023-02-09T22:54:18.409Z,99.90
2023-02-09T22:56:46.102Z,99.90
2023-02-09T22:59:14.597Z,99.90
2023-02-09T23:01:42.251Z,99.90
2023-02-09T23:04:09.848Z,99.90
2023-02-09T23:06:37.041Z,99.90
2023-02-09T23:09:07.572Z,99.90
2023-02-09T23:11:35.382Z,99.90
2023-02-09T23:14:11.162Z,99.90
2023-02-09T23:16:40.726Z,99.90
2023-02-09T23:19:11.082Z,99.90
2023-02-09T23:21:41.769Z,99.90
2023-02-09T23:24:10.510Z,99.90
2023-02-09T23:26:38.237Z,99.90
2023-02-09T23:29:11.844Z,99.90
2023-02-09T23:31:39.759Z,99.90
2023-02-09T23:34:07.410Z,99.90
2023-02-09T23:36:35.436Z,99.90
2023-02-09T23:39:06.183Z,99.90
2023-02-09T23:41:34.671Z,99.90
2023-02-09T23:44:03.531Z,99.90
2023-02-09T23:46:30.832Z,99.90
2023-02-09T23:48:58.444Z,99.90
2023-02-09T23:51:29.782Z,99.90
2023-02-09T23:54:01.049Z,99.90
2023-02-09T23:56:29.962Z,99.90
2023-02-09T23:59:20.605Z,99.90
